Time;durP1;ratioP1;P1;durP2;ratioP2;P2;SDS_P1;SDS_P2;PMS_P1;PMS_P2;Temp;Humidity;BMP_temperature;BMP_pressure;BME280_temperature;BME280_humidity;BME280_pressure;Samples;Min_cycle;Max_cycle;Signal;HPM_P1;HPM_P2
2021/09/16 00:01:20;;;;;;;1.80;1.70;;;18.10;99.90;;;;;;4996078;28;20525;-68
2021/09/16 00:03:46;;;;;;;1.47;1.33;;;18.20;99.90;;;;;;4993927;28;20255;-68
2021/09/16 00:06:12;;;;;;;1.90;1.80;;;18.20;99.90;;;;;;4995919;28;20241;-67
2021/09/16 00:08:37;;;;;;;1.80;1.70;;;18.20;99.90;;;;;;4995382;28;20205;-69
2021/09/16 00:11:03;;;;;;;1.70;1.60;;;18.30;99.90;;;;;;4995753;28;20181;-67
2021/09/16 00:13:29;;;;;;;1.47;1.37;;;18.30;99.90;;;;;;4987187;28;20176;-69
2021/09/16 00:15:55;;;;;;;1.17;1.10;;;18.40;99.90;;;;;;4995870;28;20501;-69
2021/09/16 00:18:21;;;;;;;1.27;1.17;;;18.40;99.90;;;;;;4995122;28;20520;-67
2021/09/16 00:20:47;;;;;;;1.33;1.27;;;18.50;99.90;;;;;;4995551;28;20250;-68
2021/09/16 00:23:13;;;;;;;1.63;1.50;;;18.50;99.90;;;;;;4987714;28;20910;-70
2021/09/16 00:25:39;;;;;;;1.40;1.30;;;18.50;99.90;;;;;;4976136;28;20896;-68
2021/09/16 00:28:04;;;;;;;3.17;1.90;;;18.50;99.90;;;;;;4990981;28;20216;-70
2021/09/16 00:30:30;;;;;;;2.80;2.53;;;18.50;99.90;;;;;;4958620;28;20202;-68
2021/09/16 00:32:56;;;;;;;1.57;1.50;;;18.60;99.90;;;;;;4981156;28;20430;-69
2021/09/16 00:35:21;;;;;;;2.00;1.90;;;18.60;99.90;;;;;;4995335;28;20629;-69
2021/09/16 00:37:47;;;;;;;4.50;1.80;;;18.60;99.90;;;;;;4995067;28;20201;-68
2021/09/16 00:40:13;;;;;;;2.70;1.80;;;18.70;99.90;;;;;;4977918;28;20240;-69
2021/09/16 00:42:39;;;;;;;1.40;1.30;;;18.60;99.90;;;;;;4980276;28;20519;-69
2021/09/16 00:45:05;;;;;;;1.73;1.47;;;18.60;99.90;;;;;;4976224;28;20419;-69
2021/09/16 00:47:31;;;;;;;2.97;2.43;;;18.50;99.90;;;;;;4975826;28;20708;-68
2021/09/16 00:49:56;;;;;;;1.73;1.63;;;18.40;99.90;;;;;;4975908;28;20426;-68
2021/09/16 00:52:23;;;;;;;1.67;1.43;;;18.40;99.90;;;;;;4984850;28;20262;-68
2021/09/16 00:54:52;;;;;;;2.60;2.40;;;18.40;99.90;;;;;;4975983;28;20586;-70
2021/09/16 00:57:20;;;;;;;2.90;2.70;;;18.40;99.90;;;;;;4975461;28;20448;-68
2021/09/16 00:59:46;;;;;;;2.60;2.33;;;18.50;99.90;;;;;;4975882;28;20431;-70
2021/09/16 01:02:12;;;;;;;1.43;1.33;;;18.50;99.90;;;;;;4992220;28;20393;-68
2021/09/16 01:04:38;;;;;;;1.63;1.53;;;18.50;99.90;;;;;;4995155;28;20397;-68
2021/09/16 01:07:04;;;;;;;1.83;1.73;;;18.50;99.90;;;;;;4993384;28;20421;-70
2021/09/16 01:09:31;;;;;;;1.40;1.20;;;18.50;99.90;;;;;;4995063;28;20681;-68
2021/09/16 01:11:56;;;;;;;1.90;1.80;;;18.50;99.90;;;;;;4980754;28;20866;-69
2021/09/16 01:14:28;;;;;;;2.90;2.60;;;18.60;99.90;;;;;;4976772;28;20513;-69
2021/09/16 01:16:54;;;;;;;3.23;2.63;;;18.50;99.90;;;;;;4975070;28;20198;-67
2021/09/16 01:19:20;;;;;;;1.40;1.40;;;18.60;99.90;;;;;;4975137;28;20497;-67
2021/09/16 01:21:46;;;;;;;3.03;2.73;;;18.60;99.90;;;;;;4986134;28;20394;-70
2021/09/16 01:24:12;;;;;;;1.90;1.63;;;18.70;99.90;;;;;;4994860;28;20925;-69
2021/09/16 01:26:39;;;;;;;1.20;1.20;;;18.70;99.90;;;;;;4994433;28;20582;-71
2021/09/16 01:29:04;;;;;;;1.50;1.40;;;18.70;99.90;;;;;;4991487;28;20441;-68
2021/09/16 01:31:48;;;;;;;2.93;0.97;;;18.70;99.90;;;;;;4992223;28;20434;-68
2021/09/16 01:34:16;;;;;;;1.07;1.07;;;18.70;99.90;;;;;;4994778;28;20172;-69
2021/09/16 01:36:44;;;;;;;1.33;1.23;;;18.70;99.90;;;;;;4993893;28;20423;-68
2021/09/16 01:39:13;;;;;;;3.00;2.80;;;18.70;99.90;;;;;;4967114;28;20845;-66
2021/09/16 01:41:39;;;;;;;1.30;1.10;;;18.80;99.90;;;;;;4974852;28;20392;-66
2021/09/16 01:44:05;;;;;;;0.83;0.83;;;18.80;99.90;;;;;;4981351;28;20430;-66
2021/09/16 01:46:31;;;;;;;1.53;1.43;;;18.80;99.90;;;;;;4988938;28;20653;-68
2021/09/16 01:49:03;;;;;;;1.20;1.10;;;18.70;99.90;;;;;;4993671;28;20427;-69
2021/09/16 01:51:30;;;;;;;1.47;1.37;;;18.70;99.90;;;;;;4994335;28;20253;-70
2021/09/16 01:53:56;;;;;;;4.83;1.13;;;18.50;99.90;;;;;;4976714;28;20759;-69
2021/09/16 01:56:21;;;;;;;1.23;1.23;;;18.40;99.90;;;;;;4980755;28;20492;-67
2021/09/16 01:58:47;;;;;;;0.83;0.83;;;18.40;99.90;;;;;;4975096;28;20338;-68
2021/09/16 02:01:13;;;;;;;1.00;1.00;;;18.30;99.90;;;;;;4979940;28;20261;-69
2021/09/16 02:03:38;;;;;;;1.20;1.10;;;18.10;99.90;;;;;;4993984;28;20654;-68
2021/09/16 02:06:04;;;;;;;1.33;1.23;;;18.10;99.90;;;;;;4966012;28;20186;-67
2021/09/16 02:08:29;;;;;;;1.30;1.10;;;18.00;99.90;;;;;;4974190;28;20246;-68
2021/09/16 02:10:55;;;;;;;1.40;1.30;;;17.90;99.90;;;;;;4974792;28;20289;-70
2021/09/16 02:13:21;;;;;;;1.40;1.30;;;17.90;99.90;;;;;;4980677;28;20195;-71
2021/09/16 02:15:47;;;;;;;2.60;1.20;;;17.90;99.90;;;;;;4986479;28;20206;-67
2021/09/16 02:18:12;;;;;;;1.50;1.40;;;17.90;99.90;;;;;;4973943;28;20206;-70
2021/09/16 02:20:39;;;;;;;1.40;1.30;;;17.80;99.90;;;;;;4974455;28;20525;-67
2021/09/16 02:23:05;;;;;;;4.30;2.10;;;17.70;99.90;;;;;;4974498;28;20431;-69
2021/09/16 02:25:31;;;;;;;1.43;1.27;;;17.70;99.90;;;;;;4979177;28;20427;-69
2021/09/16 02:27:56;;;;;;;1.70;1.60;;;17.80;99.90;;;;;;4993400;28;20391;-70
2021/09/16 02:30:22;;;;;;;1.17;1.17;;;17.80;99.90;;;;;;4993672;28;20261;-67
2021/09/16 02:32:48;;;;;;;1.53;1.43;;;17.70;99.90;;;;;;4993753;28;20215;-68
2021/09/16 02:35:14;;;;;;;1.57;1.43;;;17.70;99.90;;;;;;4991167;28;20420;-69
2021/09/16 02:37:40;;;;;;;1.43;1.33;;;17.70;99.90;;;;;;4973747;28;20587;-68
2021/09/16 02:40:07;;;;;;;2.87;1.47;;;17.60;99.90;;;;;;4975176;28;20197;-68
2021/09/16 02:42:33;;;;;;;1.33;1.13;;;17.60;99.90;;;;;;4984964;28;20412;-67
2021/09/16 02:44:59;;;;;;;1.10;1.10;;;17.50;99.90;;;;;;4993270;28;20931;-69
2021/09/16 02:47:24;;;;;;;1.70;1.60;;;17.50;99.90;;;;;;4973853;28;20227;-68
2021/09/16 02:49:50;;;;;;;2.43;1.53;;;17.50;99.90;;;;;;4974023;28;20282;-70
2021/09/16 02:52:16;;;;;;;1.43;1.33;;;17.50;99.90;;;;;;4974352;28;20216;-68
2021/09/16 02:54:41;;;;;;;2.70;1.70;;;17.40;99.90;;;;;;4979568;28;20274;-69
2021/09/16 02:57:07;;;;;;;1.93;1.77;;;17.40;99.90;;;;;;4976344;28;20246;-69
2021/09/16 02:59:33;;;;;;;1.60;1.40;;;17.40;99.90;;;;;;4974040;28;20192;-68
2021/09/16 03:01:58;;;;;;;2.63;1.80;;;17.30;99.90;;;;;;4974252;28;20179;-69
2021/09/16 03:04:24;;;;;;;1.90;1.80;;;17.30;99.90;;;;;;4974124;28;20176;-68
2021/09/16 03:06:49;;;;;;;1.83;1.73;;;17.30;99.90;;;;;;4977817;28;20190;-69
2021/09/16 03:09:15;;;;;;;1.53;1.43;;;17.30;99.90;;;;;;4974049;28;20205;-69
2021/09/16 03:11:41;;;;;;;4.33;1.97;;;17.30;99.90;;;;;;4973809;28;20224;-69
2021/09/16 03:14:06;;;;;;;3.50;2.10;;;17.30;99.90;;;;;;4979883;28;20180;-66
2021/09/16 03:16:32;;;;;;;2.37;1.97;;;17.30;99.90;;;;;;4993077;28;20188;-69
2021/09/16 03:18:58;;;;;;;2.37;2.20;;;17.30;99.90;;;;;;4993064;28;20192;-68
2021/09/16 03:21:23;;;;;;;2.30;2.07;;;17.20;99.90;;;;;;4992891;28;20226;-70
2021/09/16 03:23:49;;;;;;;1.30;1.20;;;17.20;99.90;;;;;;4989203;28;20235;-68
2021/09/16 03:26:15;;;;;;;2.20;2.00;;;17.20;99.90;;;;;;4973994;28;20169;-70
2021/09/16 03:28:40;;;;;;;1.60;1.50;;;17.20;99.90;;;;;;4973444;28;20184;-70
2021/09/16 03:31:07;;;;;;;1.57;1.47;;;17.30;99.90;;;;;;4977866;28;20215;-68
2021/09/16 03:33:34;;;;;;;1.60;1.50;;;17.30;99.90;;;;;;4995512;28;20171;-70
2021/09/16 03:36:00;;;;;;;1.73;1.63;;;17.30;99.90;;;;;;4977320;28;20479;-69
2021/09/16 03:38:26;;;;;;;2.03;1.93;;;17.30;99.90;;;;;;4976662;28;20601;-71
2021/09/16 03:40:51;;;;;;;1.70;1.60;;;17.40;99.90;;;;;;4981688;28;20414;-67
2021/09/16 03:43:17;;;;;;;2.47;2.10;;;17.40;99.90;;;;;;4996462;28;20415;-71
2021/09/16 03:45:43;;;;;;;2.63;2.43;;;17.40;99.90;;;;;;4996275;28;20195;-68
2021/09/16 03:48:09;;;;;;;2.77;2.57;;;17.40;99.90;;;;;;4996225;28;20172;-69
2021/09/16 03:50:36;;;;;;;2.30;2.10;;;17.40;99.90;;;;;;4993564;28;20188;-68
2021/09/16 03:53:02;;;;;;;2.80;2.60;;;17.50;99.90;;;;;;4977081;28;20551;-69
2021/09/16 03:55:28;;;;;;;3.20;3.00;;;17.50;99.90;;;;;;4977262;28;20384;-68
2021/09/16 03:57:53;;;;;;;2.80;2.63;;;17.60;99.90;;;;;;4976402;28;20451;-70
2021/09/16 04:00:19;;;;;;;2.80;2.57;;;17.60;99.90;;;;;;4976759;28;20983;-69
2021/09/16 04:02:45;;;;;;;2.20;2.10;;;17.70;99.90;;;;;;4977707;28;20185;-69
2021/09/16 04:05:10;;;;;;;2.53;2.43;;;17.70;99.90;;;;;;4976310;28;20421;-70
2021/09/16 04:07:36;;;;;;;2.20;2.10;;;17.70;99.90;;;;;;4976329;28;20184;-69
2021/09/16 04:10:04;;;;;;;2.00;1.90;;;17.70;99.90;;;;;;4984230;28;20210;-70
2021/09/16 04:12:30;;;;;;;2.47;2.37;;;17.70;99.90;;;;;;4995937;28;20746;-69
2021/09/16 04:14:55;;;;;;;2.30;1.80;;;17.60;99.90;;;;;;4996032;28;20436;-69
2021/09/16 04:17:21;;;;;;;5.13;1.93;;;17.70;99.90;;;;;;4976758;28;20656;-68
2021/09/16 04:19:46;;;;;;;1.60;1.50;;;17.70;99.90;;;;;;4981184;28;20202;-69
2021/09/16 04:22:12;;;;;;;2.27;2.07;;;17.70;99.90;;;;;;4995917;28;20647;-68
2021/09/16 04:24:37;;;;;;;3.33;1.80;;;17.70;99.90;;;;;;4995681;28;20659;-70
2021/09/16 04:27:04;;;;;;;2.73;1.87;;;17.70;99.90;;;;;;4987147;28;20284;-69
2021/09/16 04:29:29;;;;;;;2.30;1.50;;;17.70;99.90;;;;;;4961086;28;20684;-70
2021/09/16 04:31:56;;;;;;;2.20;2.00;;;17.70;99.90;;;;;;4995217;28;20514;-71
2021/09/16 04:34:22;;;;;;;3.43;2.07;;;17.60;99.90;;;;;;4995412;28;20312;-67
2021/09/16 04:36:47;;;;;;;2.70;1.90;;;17.60;99.90;;;;;;4995232;28;20427;-69
2021/09/16 04:39:13;;;;;;;2.30;2.07;;;17.60;99.90;;;;;;4995131;28;20427;-67
2021/09/16 04:41:39;;;;;;;2.00;1.80;;;17.60;99.90;;;;;;4966507;28;20180;-70
2021/09/16 04:44:04;;;;;;;1.63;1.47;;;17.60;99.90;;;;;;4975473;28;20184;-68
2021/09/16 04:46:31;;;;;;;1.37;1.30;;;17.60;99.90;;;;;;4959258;28;20180;-70
2021/09/16 04:48:56;;;;;;;1.77;1.67;;;17.60;99.90;;;;;;4975840;28;20199;-68
2021/09/16 04:51:22;;;;;;;2.00;1.80;;;17.60;99.90;;;;;;4975975;28;20419;-69
2021/09/16 04:53:48;;;;;;;1.67;1.57;;;17.70;99.90;;;;;;4981952;28;20188;-70
2021/09/16 04:56:14;;;;;;;2.20;2.00;;;17.70;99.90;;;;;;4989712;28;20182;-72
2021/09/16 04:58:39;;;;;;;2.17;1.80;;;17.70;99.90;;;;;;4976778;28;20198;-69
2021/09/16 05:01:05;;;;;;;2.97;1.80;;;17.70;99.90;;;;;;4995110;28;20231;-71
2021/09/16 05:03:30;;;;;;;2.87;2.23;;;17.70;99.90;;;;;;4975971;28;20275;-71
2021/09/16 05:05:56;;;;;;;1.93;1.83;;;17.70;99.90;;;;;;4995395;28;20173;-69
2021/09/16 05:08:22;;;;;;;1.90;1.80;;;17.80;99.90;;;;;;4994948;28;20176;-70
2021/09/16 05:10:47;;;;;;;1.87;1.50;;;17.70;99.90;;;;;;4991221;28;20663;-67
2021/09/16 05:13:13;;;;;;;1.90;1.80;;;17.80;99.90;;;;;;4986009;28;20201;-69
2021/09/16 05:15:38;;;;;;;2.93;1.53;;;17.70;99.90;;;;;;4974197;28;20256;-71
2021/09/16 05:18:04;;;;;;;2.00;1.90;;;17.70;99.90;;;;;;4973986;28;20213;-71
2021/09/16 05:20:30;;;;;;;2.53;2.33;;;17.70;99.90;;;;;;4987520;28;20669;-66
2021/09/16 05:22:56;;;;;;;2.17;1.60;;;17.70;99.90;;;;;;4993277;28;20191;-69
2021/09/16 05:25:21;;;;;;;1.70;1.60;;;17.70;99.90;;;;;;4990459;28;20254;-69
2021/09/16 05:27:47;;;;;;;1.40;1.30;;;17.80;99.90;;;;;;4973298;28;20268;-70
2021/09/16 05:30:12;;;;;;;2.43;2.23;;;17.80;99.90;;;;;;4979776;28;20621;-69
2021/09/16 05:32:38;;;;;;;3.13;1.90;;;17.80;99.90;;;;;;4973787;28;20184;-69
2021/09/16 05:35:06;;;;;;;3.00;2.53;;;17.80;99.90;;;;;;4988934;28;20745;-71
2021/09/16 05:37:31;;;;;;;4.13;2.73;;;17.80;99.90;;;;;;4980448;28;20785;-70
2021/09/16 05:39:57;;;;;;;3.50;2.70;;;17.80;99.90;;;;;;4954445;29;20473;-70
2021/09/16 05:42:26;;;;;;;8.93;3.40;;;17.80;99.90;;;;;;4955918;28;20265;-71
2021/09/16 05:44:52;;;;;;;3.00;2.37;;;17.70;99.90;;;;;;4974949;28;20179;-69
2021/09/16 05:47:18;;;;;;;2.10;2.00;;;17.70;99.90;;;;;;4977882;28;20411;-66
2021/09/16 05:49:44;;;;;;;2.60;2.33;;;17.60;99.90;;;;;;4977861;28;20470;-69
2021/09/16 05:52:09;;;;;;;2.13;2.03;;;17.60;99.90;;;;;;4972779;28;20185;-68
2021/09/16 05:54:35;;;;;;;2.73;2.50;;;17.60;99.90;;;;;;4957605;28;20256;-69
2021/09/16 05:57:01;;;;;;;3.87;2.83;;;17.60;99.90;;;;;;4971726;28;20201;-70
2021/09/16 05:59:27;;;;;;;2.13;1.97;;;17.60;99.90;;;;;;4992275;28;20443;-71
2021/09/16 06:01:52;;;;;;;2.63;2.43;;;17.70;99.90;;;;;;4991406;28;20715;-67
2021/09/16 06:04:18;;;;;;;3.37;2.23;;;17.70;99.90;;;;;;4956958;28;20196;-69
2021/09/16 06:06:43;;;;;;;2.33;2.13;;;17.70;99.90;;;;;;4960086;28;20184;-70
2021/09/16 06:09:09;;;;;;;2.93;2.70;;;17.70;99.90;;;;;;4968592;28;20656;-72
2021/09/16 06:11:35;;;;;;;1.90;1.80;;;17.70;99.90;;;;;;4974383;28;20197;-72
2021/09/16 06:14:00;;;;;;;1.50;1.40;;;17.70;99.90;;;;;;4992924;28;20658;-71
2021/09/16 06:16:26;;;;;;;1.90;1.80;;;17.70;99.90;;;;;;4976323;28;20699;-73
2021/09/16 06:18:52;;;;;;;2.83;2.13;;;17.70;99.90;;;;;;4993196;28;20260;-71
2021/09/16 06:21:17;;;;;;;2.20;1.87;;;17.70;99.90;;;;;;4993354;28;20184;-71
2021/09/16 06:23:43;;;;;;;4.37;1.90;;;17.70;99.90;;;;;;4993861;28;20208;-71
2021/09/16 06:26:09;;;;;;;4.63;2.00;;;17.70;99.90;;;;;;4993786;28;20180;-71
2021/09/16 06:28:35;;;;;;;7.03;2.40;;;17.80;99.90;;;;;;4976179;28;20284;-72
2021/09/16 06:31:01;;;;;;;5.20;2.20;;;17.80;99.90;;;;;;4975583;28;20481;-71
2021/09/16 06:33:26;;;;;;;3.33;2.50;;;17.80;99.90;;;;;;4971489;28;20990;-71
2021/09/16 06:35:52;;;;;;;3.67;2.77;;;17.80;99.90;;;;;;4974036;28;20189;-70
2021/09/16 06:38:18;;;;;;;3.10;2.27;;;17.90;99.90;;;;;;4971785;28;20568;-70
2021/09/16 06:40:43;;;;;;;3.37;2.43;;;17.80;99.90;;;;;;4974165;28;20550;-72
2021/09/16 06:43:09;;;;;;;4.13;2.57;;;17.90;99.90;;;;;;4976179;28;20208;-72
2021/09/16 06:45:35;;;;;;;3.27;2.50;;;17.90;99.90;;;;;;4984000;28;20183;-72
2021/09/16 06:48:00;;;;;;;3.03;2.83;;;17.90;99.90;;;;;;4978625;28;20213;-69
2021/09/16 06:50:27;;;;;;;3.03;2.47;;;18.00;99.90;;;;;;4969133;28;20222;-69
2021/09/16 06:52:52;;;;;;;5.10;2.30;;;18.00;99.90;;;;;;4969091;28;20216;-71
2021/09/16 06:55:18;;;;;;;3.03;2.80;;;18.10;99.90;;;;;;4976686;28;20465;-69
2021/09/16 06:57:44;;;;;;;2.47;2.27;;;18.10;99.90;;;;;;4984775;28;20206;-70
2021/09/16 07:00:10;;;;;;;2.00;1.90;;;18.10;99.90;;;;;;4973625;28;20433;-70
2021/09/16 07:02:36;;;;;;;3.50;3.20;;;18.10;99.90;;;;;;4973919;28;20529;-69
2021/09/16 07:05:03;;;;;;;4.27;2.43;;;18.10;99.90;;;;;;4973954;28;20767;-71
2021/09/16 07:07:29;;;;;;;2.80;2.00;;;18.10;99.90;;;;;;4994868;28;20441;-70
2021/09/16 07:09:54;;;;;;;4.90;2.43;;;18.10;99.90;;;;;;4996851;28;20441;-72
2021/09/16 07:12:20;;;;;;;4.10;2.40;;;18.10;99.90;;;;;;4979217;28;20304;-70
2021/09/16 07:14:46;;;;;;;2.57;2.10;;;18.10;99.90;;;;;;4984659;28;20180;-73
2021/09/16 07:17:12;;;;;;;3.27;2.97;;;18.20;99.90;;;;;;4976737;28;20453;-72
2021/09/16 07:19:37;;;;;;;4.10;2.67;;;18.20;99.90;;;;;;4977005;28;20547;-71
2021/09/16 07:22:03;;;;;;;2.90;2.70;;;18.20;99.90;;;;;;4993663;28;20256;-69
2021/09/16 07:24:29;;;;;;;4.83;2.80;;;18.20;99.90;;;;;;4992377;28;20200;-70
2021/09/16 07:26:55;;;;;;;2.63;2.43;;;18.20;99.90;;;;;;4978787;28;20412;-70
2021/09/16 07:29:22;;;;;;;4.20;2.83;;;18.30;99.90;;;;;;4959456;28;20633;-71
2021/09/16 07:31:49;;;;;;;3.33;2.07;;;18.40;99.90;;;;;;4976665;28;20217;-70
2021/09/16 07:34:16;;;;;;;2.80;1.90;;;18.30;99.90;;;;;;4980014;28;20429;-70
2021/09/16 07:36:45;;;;;;;2.90;2.60;;;18.40;99.90;;;;;;4977962;28;20424;-70
2021/09/16 07:39:12;;;;;;;5.73;2.67;;;18.50;99.90;;;;;;4991412;28;20467;-70
2021/09/16 07:41:38;;;;;;;4.23;3.03;;;18.50;99.90;;;;;;4996324;28;20388;-71
2021/09/16 07:44:04;;;;;;;3.23;2.27;;;18.50;99.90;;;;;;4984379;28;20821;-69
2021/09/16 07:46:31;;;;;;;2.57;2.37;;;18.60;99.90;;;;;;4976338;28;20472;-72
2021/09/16 07:48:57;;;;;;;2.67;2.27;;;18.60;99.90;;;;;;4975993;28;20454;-70
2021/09/16 07:51:23;;;;;;;4.50;2.20;;;18.70;99.90;;;;;;4991713;28;20457;-70
2021/09/16 07:53:49;;;;;;;2.50;2.20;;;18.70;99.90;;;;;;4994034;28;20906;-69
2021/09/16 07:56:15;;;;;;;4.60;2.50;;;18.70;99.90;;;;;;4995785;28;20425;-70
2021/09/16 07:58:44;;;;;;;7.20;4.70;;;18.70;99.90;;;;;;4993745;28;20593;-71
2021/09/16 08:01:10;;;;;;;10.37;5.57;;;18.70;99.90;;;;;;4983305;28;20504;-70
2021/09/16 08:03:36;;;;;;;5.70;4.80;;;18.70;99.90;;;;;;4976439;28;20410;-72
2021/09/16 08:06:02;;;;;;;12.23;8.50;;;18.60;99.90;;;;;;4986558;28;20421;-71
2021/09/16 08:08:28;;;;;;;6.00;5.13;;;18.60;99.90;;;;;;4995357;28;20429;-70
2021/09/16 08:10:54;;;;;;;3.23;2.93;;;18.60;99.90;;;;;;4976129;28;20409;-72
2021/09/16 08:13:20;;;;;;;4.67;4.23;;;18.60;99.90;;;;;;4982425;28;20461;-71
2021/09/16 08:15:45;;;;;;;6.97;4.60;;;18.50;99.90;;;;;;4986625;28;20178;-70
2021/09/16 08:18:11;;;;;;;8.43;5.63;;;18.40;99.90;;;;;;4975608;28;20292;-71
2021/09/16 08:20:42;;;;;;;8.20;5.33;;;18.30;99.90;;;;;;4988083;28;20253;-71
2021/09/16 08:23:07;;;;;;;9.50;5.63;;;18.20;99.90;;;;;;4995850;28;20192;-70
2021/09/16 08:25:33;;;;;;;11.13;5.00;;;18.10;99.90;;;;;;4996051;28;20883;-72
2021/09/16 08:27:59;;;;;;;9.43;5.77;;;17.90;99.90;;;;;;4978851;28;20221;-70
2021/09/16 08:30:25;;;;;;;7.67;6.20;;;17.90;99.90;;;;;;4958765;28;20207;-69
2021/09/16 08:32:51;;;;;;;9.27;6.80;;;17.80;99.90;;;;;;4976831;28;20431;-71
2021/09/16 08:35:17;;;;;;;7.20;5.33;;;17.80;99.90;;;;;;4977069;28;20451;-72
2021/09/16 08:37:43;;;;;;;9.77;5.27;;;17.80;99.90;;;;;;4975726;28;20457;-70
2021/09/16 08:40:09;;;;;;;5.90;5.40;;;17.80;99.90;;;;;;4976115;28;20199;-72
2021/09/16 08:42:39;;;;;;;5.43;4.30;;;17.90;99.90;;;;;;4977297;28;20458;-69
2021/09/16 08:45:07;;;;;;;7.00;4.80;;;17.90;99.90;;;;;;4977030;28;20817;-70
2021/09/16 08:47:36;;;;;;;10.30;3.90;;;17.90;99.90;;;;;;4992407;28;20763;-71
2021/09/16 08:50:03;;;;;;;4.00;3.40;;;18.00;99.90;;;;;;4995225;28;20456;-71
2021/09/16 08:52:29;;;;;;;2.37;2.20;;;17.90;99.90;;;;;;4977244;28;20585;-71
2021/09/16 08:54:56;;;;;;;3.83;3.23;;;17.90;99.90;;;;;;4975970;28;20458;-72
2021/09/16 08:57:22;;;;;;;2.80;2.60;;;17.90;99.90;;;;;;4984413;28;20529;-70
2021/09/16 08:59:48;;;;;;;3.10;2.87;;;18.00;99.90;;;;;;4995277;28;20824;-71
2021/09/16 09:02:14;;;;;;;2.10;1.90;;;18.00;99.90;;;;;;4995325;28;20406;-70
2021/09/16 09:04:40;;;;;;;2.80;2.60;;;18.10;99.90;;;;;;4994683;28;20439;-72
2021/09/16 09:07:07;;;;;;;3.10;2.90;;;18.10;99.90;;;;;;4993185;28;20181;-69
2021/09/16 09:09:33;;;;;;;2.67;2.47;;;18.10;99.90;;;;;;4995166;28;20936;-70
2021/09/16 09:12:14;;;;;;;3.43;3.13;;;18.20;99.90;;;;;;4985008;28;20440;-69
2021/09/16 09:14:46;;;;;;;3.23;3.00;;;18.20;99.90;;;;;;4976053;28;20416;-71
2021/09/16 09:17:27;;;;;;;3.93;3.30;;;18.10;99.90;;;;;;4958777;28;20449;-71
2021/09/16 09:19:55;;;;;;;3.93;3.60;;;18.10;99.90;;;;;;4976596;28;20413;-70
2021/09/16 09:22:36;;;;;;;4.03;3.50;;;18.10;99.90;;;;;;4975264;28;20444;-70
2021/09/16 09:25:10;;;;;;;5.60;4.50;;;18.00;99.90;;;;;;4975434;28;20909;-72
2021/09/16 09:27:38;;;;;;;4.17;3.80;;;18.00;99.90;;;;;;4972172;28;20851;-71
2021/09/16 09:30:11;;;;;;;5.60;3.80;;;18.00;99.90;;;;;;4979242;28;20451;-71
2021/09/16 09:32:49;;;;;;;3.73;3.43;;;18.00;99.90;;;;;;4975177;28;20423;-70
2021/09/16 09:35:33;;;;;;;4.67;4.03;;;17.90;99.90;;;;;;4975175;28;20376;-72
2021/09/16 09:38:05;;;;;;;5.10;4.60;;;17.80;99.90;;;;;;4974510;28;20528;-72
2021/09/16 09:40:40;;;;;;;7.37;5.27;;;17.80;99.90;;;;;;4976077;28;20392;-70
2021/09/16 09:43:31;;;;;;;5.60;4.83;;;17.70;99.90;;;;;;4974604;28;20444;-71
2021/09/16 09:45:57;;;;;;;6.73;5.00;;;17.60;99.90;;;;;;4951503;28;20439;-72
2021/09/16 09:48:22;;;;;;;6.53;4.90;;;17.60;99.90;;;;;;4982352;28;20427;-71
2021/09/16 09:50:52;;;;;;;7.70;6.33;;;17.50;99.90;;;;;;4986995;28;20272;-71
2021/09/16 09:53:17;;;;;;;6.90;5.47;;;17.50;99.90;;;;;;4978508;28;20186;-71
2021/09/16 09:55:43;;;;;;;9.67;6.50;;;17.50;99.90;;;;;;4986438;28;20519;-70
2021/09/16 09:58:09;;;;;;;8.10;6.60;;;17.40;99.90;;;;;;4975155;28;20207;-72
2021/09/16 10:00:35;;;;;;;8.20;6.23;;;17.40;99.90;;;;;;4978738;28;20188;-70
2021/09/16 10:03:01;;;;;;;7.47;5.47;;;17.40;99.90;;;;;;4975565;28;20423;-71
2021/09/16 10:05:31;;;;;;;6.67;5.43;;;17.40;99.90;;;;;;4974216;28;20268;-69
2021/09/16 10:07:59;;;;;;;6.80;5.90;;;17.40;99.90;;;;;;4973015;28;20532;-70
2021/09/16 10:10:32;;;;;;;8.73;6.00;;;17.40;99.90;;;;;;4973293;28;20415;-70
2021/09/16 10:12:58;;;;;;;6.30;5.43;;;17.40;99.90;;;;;;4973569;28;20446;-69
2021/09/16 10:15:24;;;;;;;7.90;5.20;;;17.30;99.90;;;;;;4973515;28;20388;-68
2021/09/16 10:17:52;;;;;;;7.43;4.80;;;17.30;99.90;;;;;;4958674;28;20452;-68
2021/09/16 10:20:20;;;;;;;6.40;5.13;;;17.30;99.90;;;;;;4992725;28;20195;-67
2021/09/16 10:22:48;;;;;;;9.07;7.10;;;17.20;99.90;;;;;;4973091;28;20424;-68
2021/09/16 10:25:16;;;;;;;6.87;5.33;;;17.20;99.90;;;;;;4957148;28;20895;-68
2021/09/16 10:27:48;;;;;;;7.57;6.03;;;17.10;99.90;;;;;;4975160;28;20394;-68
2021/09/16 10:30:23;;;;;;;10.30;6.33;;;17.00;99.90;;;;;;4974640;28;20511;-68
2021/09/16 10:33:03;;;;;;;6.90;5.90;;;16.90;99.90;;;;;;4974568;28;20866;-68
2021/09/16 10:35:29;;;;;;;7.50;5.53;;;16.90;99.90;;;;;;4975710;28;20385;-68
2021/09/16 10:37:55;;;;;;;7.73;5.97;;;16.90;99.90;;;;;;4974882;28;20513;-68
2021/09/16 10:40:30;;;;;;;8.93;6.17;;;16.80;99.90;;;;;;4977752;28;20440;-69
2021/09/16 10:42:59;;;;;;;7.77;6.27;;;16.80;99.90;;;;;;4961161;28;20745;-67
2021/09/16 10:45:39;;;;;;;9.00;6.13;;;16.80;99.90;;;;;;4978515;28;20895;-68
2021/09/16 10:48:14;;;;;;;9.77;5.17;;;16.80;99.90;;;;;;4977934;28;20968;-67
2021/09/16 10:50:56;;;;;;;8.33;5.80;;;16.90;99.90;;;;;;4983272;28;20421;-67
2021/09/16 10:53:54;;;;;;;11.30;6.30;;;16.90;99.90;;;;;;4997718;28;20381;-67
2021/09/16 10:56:32;;;;;;;6.97;6.23;;;16.90;99.90;;;;;;4953974;28;20410;-68
2021/09/16 10:58:59;;;;;;;7.07;5.07;;;16.90;99.90;;;;;;4997342;28;20439;-68
2021/09/16 11:01:49;;;;;;;7.97;6.30;;;16.80;99.90;;;;;;4997503;28;20383;-68
2021/09/16 11:04:15;;;;;;;6.90;6.00;;;16.80;99.90;;;;;;4997347;28;20393;-67
2021/09/16 11:06:41;;;;;;;11.77;7.00;;;16.80;99.90;;;;;;4981552;28;20448;-68
2021/09/16 11:09:07;;;;;;;10.27;6.67;;;16.80;99.90;;;;;;4992633;28;20445;-67
2021/09/16 11:11:53;;;;;;;10.10;7.63;;;16.80;99.90;;;;;;4990301;28;20433;-68
2021/09/16 11:14:31;;;;;;;7.20;5.90;;;16.90;99.90;;;;;;4997242;28;20431;-68
2021/09/16 11:16:57;;;;;;;8.27;5.80;;;16.90;99.90;;;;;;4979441;28;20455;-66
2021/09/16 11:19:23;;;;;;;8.33;6.37;;;16.90;99.90;;;;;;4997150;28;20753;-66
2021/09/16 11:22:07;;;;;;;8.33;6.47;;;16.90;99.90;;;;;;4996493;28;20946;-68
2021/09/16 11:24:39;;;;;;;9.80;5.63;;;16.90;99.90;;;;;;4992936;28;20402;-67
2021/09/16 11:27:06;;;;;;;9.90;7.20;;;16.90;99.90;;;;;;4996678;28;20402;-67
2021/09/16 11:29:43;;;;;;;9.00;5.53;;;16.90;99.90;;;;;;4996784;28;20403;-67
2021/09/16 11:32:09;;;;;;;7.37;4.90;;;17.00;99.90;;;;;;4996886;28;20390;-67
2021/09/16 11:34:35;;;;;;;6.80;5.80;;;17.10;99.90;;;;;;4980828;28;20487;-68
2021/09/16 11:37:05;;;;;;;7.73;4.70;;;17.10;99.90;;;;;;4979039;28;20458;-68
2021/09/16 11:39:31;;;;;;;7.97;6.53;;;17.00;99.90;;;;;;4996712;28;20525;-70
2021/09/16 11:42:16;;;;;;;7.37;6.20;;;17.00;99.90;;;;;;4992872;28;20430;-67
2021/09/16 11:45:10;;;;;;;7.30;5.87;;;17.00;99.90;;;;;;4963783;28;20430;-68
2021/09/16 11:47:45;;;;;;;6.30;5.50;;;17.00;99.90;;;;;;4977818;28;20416;-68
2021/09/16 11:50:23;;;;;;;9.10;6.53;;;17.10;99.90;;;;;;4976824;28;20459;-68
2021/09/16 11:52:54;;;;;;;7.17;4.80;;;17.10;99.90;;;;;;4976053;28;20475;-68
2021/09/16 11:55:20;;;;;;;6.87;5.60;;;17.30;99.90;;;;;;4976815;28;20492;-68
2021/09/16 11:57:54;;;;;;;10.20;6.70;;;17.40;99.90;;;;;;4976327;28;20462;-68
2021/09/16 12:00:30;;;;;;;8.57;6.00;;;17.50;99.90;;;;;;4989828;28;20283;-67
2021/09/16 12:02:56;;;;;;;6.33;5.60;;;17.70;99.90;;;;;;4989525;28;20421;-68
2021/09/16 12:05:38;;;;;;;6.70;5.00;;;17.90;99.90;;;;;;4976895;28;20415;-66
2021/09/16 12:08:06;;;;;;;6.23;4.73;;;18.20;99.90;;;;;;4975865;28;20941;-68
2021/09/16 12:10:44;;;;;;;7.37;6.20;;;18.30;99.90;;;;;;4959297;28;20419;-67
2021/09/16 12:13:13;;;;;;;8.40;5.37;;;18.50;99.90;;;;;;4965749;28;20401;-66
2021/09/16 12:15:38;;;;;;;7.43;5.73;;;18.70;99.90;;;;;;4978332;28;20460;-67
2021/09/16 12:18:05;;;;;;;6.13;4.33;;;18.80;99.90;;;;;;4985783;28;20945;-67
2021/09/16 12:20:31;;;;;;;5.80;5.03;;;18.90;99.90;;;;;;4989233;28;20199;-68
2021/09/16 12:22:57;;;;;;;8.37;5.37;;;18.90;99.90;;;;;;4995835;28;20418;-71
2021/09/16 12:25:23;;;;;;;6.07;4.93;;;18.90;99.90;;;;;;4995964;28;20377;-69
2021/09/16 12:28:08;;;;;;;7.73;5.83;;;18.90;99.90;;;;;;4985819;28;20543;-72
2021/09/16 12:30:36;;;;;;;6.60;4.93;;;18.90;99.90;;;;;;4976149;28;20415;-69
2021/09/16 12:33:22;;;;;;;5.60;4.90;;;18.90;99.90;;;;;;4976108;28;20394;-66
2021/09/16 12:36:21;;;;;;;8.53;5.43;;;18.80;99.90;;;;;;4976018;28;20493;-70
2021/09/16 12:38:50;;;;;;;7.80;5.77;;;18.70;99.90;;;;;;4975828;28;20469;-69
2021/09/16 12:41:23;;;;;;;6.07;5.33;;;18.70;99.90;;;;;;4976054;28;20466;-70
2021/09/16 12:43:57;;;;;;;9.13;5.03;;;18.70;99.90;;;;;;4961863;28;20888;-69
2021/09/16 12:46:24;;;;;;;7.73;5.90;;;18.80;99.90;;;;;;4976428;28;20398;-71
2021/09/16 12:48:50;;;;;;;6.03;3.83;;;18.90;99.90;;;;;;4977259;28;20967;-69